Time;durP1;ratioP1;P1;durP2;ratioP2;P2;SDS_P1;SDS_P2;PMS_P1;PMS_P2;Temp;Humidity;BMP_temperature;BMP_pressure;BME280_temperature;BME280_humidity;BME280_pressure;Samples;Min_cycle;Max_cycle;Signal;HPM_P1;HPM_P2
2021/08/16 00:00:43;;;;;;;14.18;7.45;;;25.40;26.10;;;;;;4363918;32;20082;-71
2021/08/16 00:03:09;;;;;;;14.52;7.43;;;25.40;26.30;;;;;;4352482;32;20075;-70
2021/08/16 00:05:36;;;;;;;13.20;7.47;;;25.20;26.60;;;;;;4339553;32;20166;-71
2021/08/16 00:08:08;;;;;;;13.80;8.25;;;25.20;26.70;;;;;;4351966;32;20090;-70
2021/08/16 00:10:34;;;;;;;16.45;8.00;;;25.10;27.00;;;;;;4352164;32;20090;-70
2021/08/16 00:13:00;;;;;;;14.30;7.43;;;25.10;27.20;;;;;;4363940;32;20527;-71
2021/08/16 00:15:26;;;;;;;18.25;8.18;;;24.90;27.30;;;;;;4339699;32;20078;-71
2021/08/16 00:17:52;;;;;;;17.42;7.32;;;24.90;27.70;;;;;;4339729;32;20238;-71
2021/08/16 00:20:19;;;;;;;13.45;7.68;;;24.80;28.00;;;;;;4364288;32;20506;-71
2021/08/16 00:22:45;;;;;;;13.75;7.60;;;24.80;28.10;;;;;;4351549;32;20501;-70
2021/08/16 00:25:11;;;;;;;15.45;7.85;;;24.60;28.60;;;;;;4351953;32;20071;-70
2021/08/16 00:27:37;;;;;;;14.45;7.80;;;24.80;28.10;;;;;;4377353;32;20086;-71
2021/08/16 00:30:04;;;;;;;14.87;7.68;;;24.80;28.20;;;;;;4351694;32;20081;-70
2021/08/16 00:32:30;;;;;;;16.20;8.10;;;24.70;28.50;;;;;;4351683;32;20469;-71
2021/08/16 00:34:56;;;;;;;15.07;7.30;;;24.60;28.70;;;;;;4351621;32;20074;-69
2021/08/16 00:37:22;;;;;;;13.80;8.05;;;24.60;29.00;;;;;;4363755;32;20082;-70
2021/08/16 00:39:49;;;;;;;14.63;7.35;;;24.60;29.00;;;;;;4351428;32;20180;-71
2021/08/16 00:42:15;;;;;;;14.18;7.87;;;24.50;29.30;;;;;;4339176;32;20082;-71
2021/08/16 00:44:41;;;;;;;15.60;7.50;;;24.40;29.70;;;;;;4351720;32;20082;-70
2021/08/16 00:47:08;;;;;;;14.27;7.97;;;24.40;29.80;;;;;;4326744;32;20082;-70
2021/08/16 00:49:34;;;;;;;13.60;7.57;;;24.40;29.80;;;;;;4350962;32;20084;-71
2021/08/16 00:52:02;;;;;;;14.20;6.62;;;24.30;30.00;;;;;;4339229;32;20082;-71
2021/08/16 00:54:28;;;;;;;14.25;7.47;;;24.40;30.00;;;;;;4351310;32;20544;-71
2021/08/16 00:56:55;;;;;;;13.75;7.87;;;24.30;30.40;;;;;;4326920;32;20225;-71
2021/08/16 00:59:21;;;;;;;11.65;6.87;;;24.30;30.70;;;;;;4351430;32;20078;-71
2021/08/16 01:01:48;;;;;;;17.77;8.13;;;24.20;30.70;;;;;;4338851;32;20505;-71
2021/08/16 01:04:14;;;;;;;15.45;8.05;;;24.30;30.80;;;;;;4339294;32;20167;-71
2021/08/16 01:06:40;;;;;;;16.98;7.65;;;24.10;31.20;;;;;;4363126;32;20108;-71
2021/08/16 01:09:06;;;;;;;16.85;7.53;;;24.10;31.10;;;;;;4363318;32;20070;-71
2021/08/16 01:11:33;;;;;;;16.23;7.90;;;24.00;31.80;;;;;;4363157;32;20517;-70
2021/08/16 01:13:59;;;;;;;16.25;7.30;;;24.20;31.50;;;;;;4351016;32;20524;-70
2021/08/16 01:16:25;;;;;;;16.23;7.62;;;24.20;31.30;;;;;;4350851;32;20198;-71
2021/08/16 01:18:51;;;;;;;17.45;7.93;;;24.40;30.90;;;;;;4338854;32;20452;-71
2021/08/16 01:21:18;;;;;;;17.87;7.90;;;24.30;30.70;;;;;;4350985;32;20097;-71
2021/08/16 01:23:45;;;;;;;15.63;7.87;;;24.40;30.70;;;;;;4351177;32;20086;-70
2021/08/16 01:26:11;;;;;;;14.63;7.07;;;24.30;30.90;;;;;;4338523;32;20082;-71
2021/08/16 01:28:37;;;;;;;15.05;7.07;;;24.30;31.10;;;;;;4338666;32;20173;-70
2021/08/16 01:31:05;;;;;;;18.25;7.87;;;24.00;32.10;;;;;;4365336;32;20178;-70
2021/08/16 01:33:32;;;;;;;15.05;7.87;;;23.80;32.50;;;;;;4341977;32;20066;-70
2021/08/16 01:35:58;;;;;;;16.27;8.00;;;23.80;32.80;;;;;;4343891;32;20094;-70
2021/08/16 01:38:33;;;;;;;14.80;7.07;;;23.60;34.00;;;;;;4364023;32;20519;-71
2021/08/16 01:41:00;;;;;;;18.58;8.52;;;23.60;35.50;;;;;;4339733;32;20235;-70
2021/08/16 01:43:26;;;;;;;17.77;8.35;;;23.50;34.10;;;;;;4350986;32;20078;-70
2021/08/16 01:45:52;;;;;;;14.20;7.50;;;23.50;34.00;;;;;;4338395;32;20093;-69
2021/08/16 01:48:19;;;;;;;15.50;7.72;;;23.50;34.90;;;;;;4326057;32;20507;-71
2021/08/16 01:50:46;;;;;;;15.60;7.90;;;23.60;33.90;;;;;;4350690;32;20137;-69
2021/08/16 01:53:12;;;;;;;19.23;7.57;;;23.60;34.30;;;;;;4338451;32;20186;-70
2021/08/16 01:55:39;;;;;;;14.68;7.12;;;23.60;34.10;;;;;;4363410;32;20094;-71
2021/08/16 01:58:07;;;;;;;16.83;8.18;;;23.60;34.10;;;;;;4376504;32;20081;-71
2021/08/16 02:00:33;;;;;;;16.58;7.90;;;23.50;35.10;;;;;;4338180;32;20074;-71
2021/08/16 02:02:59;;;;;;;18.05;8.40;;;23.50;34.10;;;;;;4376991;32;20063;-70
2021/08/16 02:05:25;;;;;;;15.45;8.02;;;23.40;35.40;;;;;;4376993;32;20066;-71
2021/08/16 02:07:51;;;;;;;18.17;7.47;;;23.40;36.00;;;;;;4376376;32;20080;-70
2021/08/16 02:10:18;;;;;;;13.32;7.03;;;23.30;37.00;;;;;;4363261;32;20085;-70
2021/08/16 02:12:44;;;;;;;17.67;8.45;;;23.50;36.00;;;;;;4350508;32;20081;-71
2021/08/16 02:15:11;;;;;;;15.10;7.35;;;23.50;36.50;;;;;;4362941;32;20087;-70
2021/08/16 02:17:37;;;;;;;16.77;8.75;;;23.30;37.90;;;;;;4326073;32;20082;-71
2021/08/16 02:20:05;;;;;;;17.37;8.45;;;23.30;37.00;;;;;;4350030;32;20061;-70
2021/08/16 02:22:32;;;;;;;16.55;8.95;;;23.20;39.10;;;;;;4338527;32;20089;-70
2021/08/16 02:24:58;;;;;;;16.40;8.10;;;23.20;40.00;;;;;;4350483;32;20105;-71
2021/08/16 02:27:24;;;;;;;22.70;8.55;;;23.20;40.10;;;;;;4349766;32;20086;-71
2021/08/16 02:29:50;;;;;;;13.82;8.40;;;23.40;38.70;;;;;;4376395;32;20596;-70
2021/08/16 02:32:16;;;;;;;19.27;9.20;;;23.50;37.50;;;;;;4338076;32;20085;-71
2021/08/16 02:34:43;;;;;;;13.73;8.07;;;23.40;39.20;;;;;;4362329;32;20078;-70
2021/08/16 02:37:09;;;;;;;17.02;8.02;;;23.60;38.20;;;;;;4362518;32;20105;-70
2021/08/16 02:39:36;;;;;;;17.23;8.10;;;23.70;38.40;;;;;;4350357;32;20089;-70
2021/08/16 02:42:02;;;;;;;17.15;8.43;;;23.60;39.50;;;;;;4362903;32;20519;-71
2021/08/16 02:44:28;;;;;;;14.40;7.40;;;23.70;38.00;;;;;;4337784;32;20145;-71
2021/08/16 02:46:56;;;;;;;17.85;8.07;;;23.90;38.60;;;;;;4349471;32;20567;-71
2021/08/16 02:49:22;;;;;;;15.05;8.52;;;23.70;39.20;;;;;;4350355;32;20085;-71
2021/08/16 02:51:48;;;;;;;17.58;8.30;;;24.00;38.20;;;;;;4349755;32;20472;-70
2021/08/16 02:54:14;;;;;;;18.80;7.90;;;24.00;40.00;;;;;;4349670;32;20074;-71
2021/08/16 02:56:41;;;;;;;15.55;8.45;;;24.00;39.10;;;;;;4362278;32;20065;-70
2021/08/16 02:59:07;;;;;;;15.60;7.97;;;24.00;39.30;;;;;;4375898;32;20074;-71
2021/08/16 03:01:33;;;;;;;15.82;8.70;;;24.20;39.10;;;;;;4349843;32;20534;-70
2021/08/16 03:04:00;;;;;;;17.75;8.70;;;24.20;39.60;;;;;;4361876;32;20105;-70
2021/08/16 03:06:27;;;;;;;15.35;8.35;;;24.20;38.80;;;;;;4337950;32;20092;-71
2021/08/16 03:08:56;;;;;;;14.85;7.95;;;24.30;38.40;;;;;;4338261;32;20078;-70
2021/08/16 03:11:23;;;;;;;15.23;7.95;;;24.30;38.40;;;;;;4362530;32;20456;-70
2021/08/16 03:13:49;;;;;;;16.62;8.25;;;24.40;38.40;;;;;;4340054;32;20512;-70
2021/08/16 03:16:15;;;;;;;20.52;7.80;;;24.50;37.30;;;;;;4342557;32;20085;-70
2021/08/16 03:18:41;;;;;;;15.77;7.95;;;24.60;37.10;;;;;;4381493;32;20065;-71
2021/08/16 03:21:08;;;;;;;17.08;8.10;;;24.60;36.60;;;;;;4355928;32;20132;-70
2021/08/16 03:23:34;;;;;;;15.38;7.97;;;24.60;36.10;;;;;;4367632;32;20086;-71
2021/08/16 03:26:00;;;;;;;16.90;7.93;;;24.60;36.70;;;;;;4365490;32;20150;-71
2021/08/16 03:28:28;;;;;;;17.52;8.50;;;24.70;35.80;;;;;;4340739;32;20076;-71
2021/08/16 03:30:54;;;;;;;17.77;8.55;;;24.70;35.80;;;;;;4352694;32;20085;-70
2021/08/16 03:33:20;;;;;;;14.77;7.68;;;24.80;34.20;;;;;;4340338;32;20069;-70
2021/08/16 03:35:46;;;;;;;21.25;8.38;;;24.90;33.80;;;;;;4364829;32;20082;-70
2021/08/16 03:38:13;;;;;;;18.50;8.55;;;24.90;33.90;;;;;;4340570;32;20262;-70
2021/08/16 03:40:39;;;;;;;16.98;8.27;;;24.90;32.70;;;;;;4340250;32;20071;-70
2021/08/16 03:43:05;;;;;;;16.90;8.50;;;25.00;32.20;;;;;;4352827;32;20090;-70
2021/08/16 03:45:31;;;;;;;15.35;8.10;;;25.10;31.50;;;;;;4352194;32;20085;-70
2021/08/16 03:47:58;;;;;;;19.87;8.98;;;25.20;30.60;;;;;;4352097;32;20070;-70
2021/08/16 03:50:24;;;;;;;17.08;8.45;;;25.30;30.00;;;;;;4365042;32;20437;-71
2021/08/16 03:52:50;;;;;;;16.08;8.15;;;25.40;29.30;;;;;;4315793;32;20098;-71
2021/08/16 03:55:16;;;;;;;17.15;8.35;;;25.60;29.20;;;;;;4364320;32;20090;-70
2021/08/16 03:57:43;;;;;;;20.17;8.30;;;25.70;29.10;;;;;;4352232;32;20515;-71
2021/08/16 04:00:10;;;;;;;18.75;8.48;;;25.80;28.90;;;;;;4377671;32;20084;-70
2021/08/16 04:02:41;;;;;;;17.70;8.80;;;25.80;29.20;;;;;;4339744;32;20081;-72
2021/08/16 04:05:10;;;;;;;17.42;9.18;;;25.90;28.10;;;;;;4352811;32;20097;-70
2021/08/16 04:07:36;;;;;;;16.52;8.82;;;26.10;27.80;;;;;;4364268;32;20084;-71
2021/08/16 04:10:02;;;;;;;17.73;8.52;;;26.20;27.50;;;;;;4364076;32;20505;-71
2021/08/16 04:12:29;;;;;;;17.17;7.68;;;26.20;27.70;;;;;;4377814;32;20066;-71
2021/08/16 04:14:55;;;;;;;19.95;8.52;;;26.10;27.50;;;;;;4339775;32;20085;-71
2021/08/16 04:17:21;;;;;;;19.08;8.88;;;26.10;27.50;;;;;;4377724;32;20089;-71
2021/08/16 04:19:47;;;;;;;17.35;8.35;;;26.20;27.70;;;;;;4339428;32;20077;-70
2021/08/16 04:22:13;;;;;;;17.45;7.95;;;26.20;28.00;;;;;;4351674;32;20444;-70
2021/08/16 04:24:39;;;;;;;19.05;8.40;;;26.20;27.90;;;;;;4326982;32;20097;-70
2021/08/16 04:27:06;;;;;;;15.45;8.23;;;26.10;27.70;;;;;;4377413;32;20489;-71
2021/08/16 04:29:32;;;;;;;17.90;8.38;;;26.10;27.70;;;;;;4363906;32;20063;-71
2021/08/16 04:31:58;;;;;;;15.25;7.90;;;26.10;27.90;;;;;;4351936;32;20460;-71
2021/08/16 04:34:24;;;;;;;20.27;7.87;;;26.20;27.80;;;;;;4351894;32;20074;-70
2021/08/16 04:36:50;;;;;;;17.15;7.53;;;26.10;28.00;;;;;;4351239;32;20081;-70
2021/08/16 04:39:16;;;;;;;17.05;8.57;;;26.10;28.30;;;;;;4365488;32;20167;-70
2021/08/16 04:41:43;;;;;;;19.05;8.70;;;26.20;28.00;;;;;;4342692;32;20082;-71
2021/08/16 04:44:09;;;;;;;17.85;8.35;;;26.20;28.00;;;;;;4363905;32;20179;-71
2021/08/16 04:46:35;;;;;;;20.88;8.95;;;26.20;28.00;;;;;;4351402;32;20085;-70
2021/08/16 04:49:01;;;;;;;14.65;8.30;;;26.50;27.90;;;;;;4351367;32;20070;-70
2021/08/16 04:51:27;;;;;;;17.73;8.52;;;28.30;25.70;;;;;;4364043;32;20087;-71
2021/08/16 04:53:53;;;;;;;22.13;9.23;;;28.80;24.50;;;;;;4351219;32;20083;-71
2021/08/16 04:56:20;;;;;;;16.90;8.75;;;28.70;24.40;;;;;;4338704;32;20081;-71
2021/08/16 04:58:46;;;;;;;17.62;8.05;;;29.10;24.10;;;;;;4363679;32;20440;-70
2021/08/16 05:01:12;;;;;;;23.00;9.65;;;29.10;24.60;;;;;;4351338;32;20547;-70
2021/08/16 05:03:38;;;;;;;14.38;8.10;;;29.00;24.00;;;;;;4351648;32;20183;-71
2021/08/16 05:06:07;;;;;;;17.58;9.07;;;29.10;24.40;;;;;;4351037;32;20579;-70
2021/08/16 05:08:36;;;;;;;19.50;9.10;;;29.50;23.90;;;;;;4351425;32;20101;-70
2021/08/16 05:11:06;;;;;;;17.33;7.97;;;29.90;23.80;;;;;;4351459;32;20093;-70
2021/08/16 05:13:32;;;;;;;21.83;8.90;;;29.80;23.40;;;;;;4363761;32;20074;-71
2021/08/16 05:15:58;;;;;;;20.00;9.13;;;30.00;23.50;;;;;;4362863;32;20475;-69
2021/08/16 05:18:25;;;;;;;19.50;8.52;;;29.80;23.40;;;;;;4338888;32;20096;-71
2021/08/16 05:20:51;;;;;;;18.40;8.80;;;30.00;23.00;;;;;;4350807;32;20082;-70
2021/08/16 05:23:20;;;;;;;18.00;9.27;;;29.80;22.30;;;;;;4350549;32;20078;-70
2021/08/16 05:25:47;;;;;;;16.35;8.68;;;30.20;21.70;;;;;;4338573;32;20153;-71
2021/08/16 05:28:14;;;;;;;18.23;9.00;;;30.20;21.00;;;;;;4351184;32;20099;-71
2021/08/16 05:30:40;;;;;;;16.33;9.38;;;30.70;20.80;;;;;;4338709;32;20085;-71
2021/08/16 05:33:07;;;;;;;20.52;9.88;;;30.90;20.50;;;;;;4350655;32;20515;-70
2021/08/16 05:35:33;;;;;;;16.70;8.98;;;30.90;20.10;;;;;;4350511;32;20081;-70
2021/08/16 05:37:59;;;;;;;15.55;8.68;;;30.90;19.70;;;;;;4338363;32;20071;-70
2021/08/16 05:40:27;;;;;;;14.10;8.20;;;31.30;19.90;;;;;;4338238;32;20078;-70
2021/08/16 05:42:53;;;;;;;16.92;8.90;;;31.20;19.20;;;;;;4338772;32;20106;-71
2021/08/16 05:45:19;;;;;;;13.82;7.82;;;31.90;18.60;;;;;;4350509;32;20166;-71
2021/08/16 05:47:45;;;;;;;15.90;9.40;;;32.10;17.50;;;;;;4362763;32;20078;-70
2021/08/16 05:50:11;;;;;;;21.15;8.80;;;32.40;17.30;;;;;;4376610;32;20077;-71
2021/08/16 05:52:38;;;;;;;17.92;8.80;;;32.30;17.30;;;;;;4362856;32;20195;-70
2021/08/16 05:55:05;;;;;;;20.70;9.57;;;31.90;17.00;;;;;;4350773;32;20082;-71
2021/08/16 05:57:32;;;;;;;14.77;7.82;;;31.80;16.80;;;;;;4338103;32;20513;-70
2021/08/16 05:59:58;;;;;;;17.90;8.43;;;32.00;16.70;;;;;;4350326;32;20160;-71
2021/08/16 06:02:24;;;;;;;19.50;9.45;;;32.10;17.00;;;;;;4337942;32;20149;-71
2021/08/16 06:04:50;;;;;;;21.50;9.82;;;32.30;17.00;;;;;;4338276;32;20081;-71
2021/08/16 06:07:16;;;;;;;18.45;9.23;;;32.40;16.40;;;;;;4338099;32;20154;-70
2021/08/16 06:09:43;;;;;;;19.62;9.27;;;33.20;15.80;;;;;;4350545;32;20318;-70
2021/08/16 06:12:09;;;;;;;20.55;9.55;;;33.00;15.60;;;;;;4327315;32;20183;-70
2021/08/16 06:14:37;;;;;;;20.52;9.38;;;33.20;15.70;;;;;;4326125;32;20168;-70
2021/08/16 06:17:04;;;;;;;18.52;9.82;;;32.50;15.50;;;;;;4350702;32;20086;-69
2021/08/16 06:19:31;;;;;;;21.12;9.40;;;32.80;15.00;;;;;;4338059;32;20526;-71
2021/08/16 06:21:57;;;;;;;20.70;10.32;;;32.30;15.40;;;;;;4350029;32;20074;-71
2021/08/16 06:24:23;;;;;;;17.40;9.07;;;32.50;15.40;;;;;;4363413;32;20108;-70
2021/08/16 06:26:49;;;;;;;18.90;9.57;;;31.70;15.80;;;;;;4325342;32;20074;-70
2021/08/16 06:29:16;;;;;;;27.40;10.35;;;30.90;16.80;;;;;;4337408;32;20505;-69
2021/08/16 06:31:42;;;;;;;18.85;9.68;;;31.20;17.20;;;;;;4350380;32;20082;-70
2021/08/16 06:34:10;;;;;;;19.67;9.38;;;31.10;17.30;;;;;;4338058;32;20083;-69
2021/08/16 06:36:40;;;;;;;20.42;9.30;;;30.70;17.90;;;;;;4350045;32;20074;-70
2021/08/16 06:39:18;;;;;;;19.08;9.73;;;30.40;17.60;;;;;;4337722;32;20525;-70
2021/08/16 06:41:46;;;;;;;18.00;9.60;;;;;;;;;;4333541;32;20086;-65
2021/08/16 06:44:16;;;;;;;16.80;7.90;;;;;;;;;;4334494;32;20190;-70
2021/08/16 06:46:43;;;;;;;21.08;9.30;;;;;;;;;;4341228;32;20120;-70
2021/08/16 06:49:10;;;;;;;20.62;9.38;;;;;;;;;;4330635;32;20195;-71
2021/08/16 06:51:36;;;;;;;22.20;10.13;;;;;;;;;;4338545;32;20077;-69
2021/08/16 06:54:03;;;;;;;17.75;9.73;;;;;;;;;;4341058;32;20504;-69
2021/08/16 06:56:29;;;;;;;18.17;9.00;;;;;;;;;;4349800;32;20078;-68
2021/08/16 06:58:56;;;;;;;17.62;10.00;;;;;;;;;;4349633;32;20186;-71
2021/08/16 07:01:27;;;;;;;18.77;10.13;;;;;;;;;;4364003;32;20101;-70
2021/08/16 07:03:55;;;;;;;20.35;11.25;;;;;;;;;;4344786;32;20086;-72
2021/08/16 07:06:21;;;;;;;19.20;9.38;;;;;;;;;;4337326;32;20144;-71
2021/08/16 07:08:48;;;;;;;23.83;10.80;;;;;;;;;;4366849;32;20584;-73
2021/08/16 07:11:15;;;;;;;21.77;10.45;;;;;;;;;;4341949;32;20074;-72
2021/08/16 07:13:42;;;;;;;20.77;10.60;;;;;;;;;;4351452;32;20121;-76
2021/08/16 07:16:08;;;;;;;21.17;11.00;;;;;;;;;;4316674;32;20081;-76
2021/08/16 07:18:35;;;;;;;18.90;10.98;;;;;;;;;;4333926;32;20879;-71
2021/08/16 07:21:03;;;;;;;20.92;10.35;;;;;;;;;;4356445;32;20516;-74
2021/08/16 07:23:30;;;;;;;23.40;10.73;;;;;;;;;;4331189;32;20074;-76
2021/08/16 07:25:59;;;;;;;23.85;10.93;;;;;;;;;;4346723;32;20504;-75
2021/08/16 07:28:29;;;;;;;18.77;10.32;;;;;;;;;;4343123;32;20154;-75
2021/08/16 07:30:56;;;;;;;17.80;10.30;;;;;;;;;;4330715;32;20074;-76
2021/08/16 07:33:23;;;;;;;18.45;9.75;;;;;;;;;;4340720;32;20113;-72
2021/08/16 07:35:50;;;;;;;17.75;10.15;;;;;;;;;;4338827;32;20058;-76
2021/08/16 07:38:16;;;;;;;19.00;10.02;;;;;;;;;;4357867;32;20067;-72
2021/08/16 07:40:43;;;;;;;18.33;9.25;;;;;;;;;;4350734;32;20184;-75
2021/08/16 07:43:10;;;;;;;19.48;10.38;;;;;;;;;;4324297;32;20112;-74
2021/08/16 07:45:37;;;;;;;22.48;10.85;;;;;;;;;;4337198;32;20082;-70
2021/08/16 07:48:04;;;;;;;20.55;10.80;;;;;;;;;;4339109;32;20075;-70
2021/08/16 07:50:31;;;;;;;23.33;10.68;;;;;;;;;;4340764;32;20063;-73
2021/08/16 07:52:58;;;;;;;22.40;11.18;;;;;;;;;;4356960;32;20090;-68
2021/08/16 07:55:26;;;;;;;21.42;10.85;;;;;;;;;;4336279;32;20156;-73
2021/08/16 07:57:53;;;;;;;22.50;12.07;;;;;;;;;;4326770;32;20157;-68
2021/08/16 08:00:20;;;;;;;20.62;10.85;;;;;;;;;;4349261;32;20070;-69
2021/08/16 08:02:47;;;;;;;22.60;11.05;;;;;;;;;;4353629;32;20148;-73
2021/08/16 08:05:16;;;;;;;22.55;11.32;;;;;;;;;;4355221;32;20078;-73
2021/08/16 08:07:43;;;;;;;21.02;10.93;;;;;;;;;;4352563;32;20109;-75
2021/08/16 08:10:10;;;;;;;23.42;13.30;;;;;;;;;;4336525;32;20191;-80
2021/08/16 08:12:37;;;;;;;21.73;11.25;;;;;;;;;;4342769;32;20570;-79
2021/08/16 08:15:04;;;;;;;27.60;13.20;;;;;;;;;;4350970;32;20078;-75
2021/08/16 08:17:31;;;;;;;22.08;11.82;;;;;;;;;;4359984;32;20166;-76
2021/08/16 08:19:58;;;;;;;25.08;12.77;;;;;;;;;;4341980;32;20108;-73
2021/08/16 08:22:25;;;;;;;27.30;12.80;;;;;;;;;;4343827;32;20098;-75
2021/08/16 08:24:52;;;;;;;24.77;12.93;;;;;;;;;;4340496;32;20113;-79
2021/08/16 08:27:19;;;;;;;26.42;13.98;;;;;;;;;;4337692;32;20183;-68
2021/08/16 08:29:46;;;;;;;25.83;13.70;;;;;;;;;;4325145;32;20102;-74
2021/08/16 08:32:13;;;;;;;26.35;14.48;;;;;;;;;;4329981;32;20108;-73
2021/08/16 08:34:42;;;;;;;30.37;14.00;;;;;;;;;;4332426;32;20112;-72
2021/08/16 08:37:13;;;;;;;30.52;14.30;;;;;;;;;;4356945;32;20066;-71
2021/08/16 08:39:44;;;;;;;25.25;14.48;;;;;;;;;;4337758;32;20187;-71
2021/08/16 08:42:14;;;;;;;27.95;14.00;;;;;;;;;;4308913;32;20660;-71
2021/08/16 08:44:41;;;;;;;24.10;13.95;;;;;;;;;;4321238;32;20604;-72
2021/08/16 08:47:08;;;;;;;26.12;14.63;;;;;;;;;;4338981;32;20101;-71
2021/08/16 08:49:35;;;;;;;29.80;15.93;;;;;;;;;;4359776;32;20078;-71
2021/08/16 08:52:02;;;;;;;27.65;15.00;;;;;;;;;;4345274;32;20088;-75
2021/08/16 08:55:14;;;;;;;27.23;14.48;;;33.60;12.70;;;;;;3808970;37;20070;-74
2021/08/16 08:57:41;;;;;;;28.12;15.85;;;33.40;14.10;;;;;;4344871;32;20154;-70
2021/08/16 09:00:16;;;;;;;26.90;14.35;;;33.60;14.10;;;;;;4350798;32;20173;-72
2021/08/16 09:02:53;;;;;;;29.80;15.20;;;33.40;13.10;;;;;;4345132;32;20087;-72
2021/08/16 09:05:20;;;;;;;32.40;15.68;;;33.40;13.00;;;;;;4350557;32;20081;-72
2021/08/16 09:07:46;;;;;;;32.05;17.15;;;33.10;13.00;;;;;;4369349;32;20089;-74
2021/08/16 09:10:14;;;;;;;26.62;15.40;;;33.20;13.60;;;;;;4364648;32;20082;-73
2021/08/16 09:12:41;;;;;;;30.88;17.15;;;32.80;13.60;;;;;;4339953;32;20076;-74
2021/08/16 09:15:19;;;;;;;32.33;16.25;;;32.60;14.10;;;;;;4347654;32;20455;-74
2021/08/16 09:17:46;;;;;;;32.83;16.12;;;33.00;13.70;;;;;;4350867;32;20063;-71
2021/08/16 09:20:32;;;;;;;31.98;15.88;;;32.80;14.20;;;;;;4345704;32;20066;-70
2021/08/16 09:23:05;;;;;;;31.02;15.77;;;33.20;14.60;;;;;;4348461;32;20092;-71
2021/08/16 09:25:36;;;;;;;29.77;16.48;;;33.20;15.00;;;;;;4365200;32;20109;-72
2021/08/16 09:28:05;;;;;;;28.92;15.85;;;33.20;15.30;;;;;;4357081;32;20144;-69
2021/08/16 09:30:39;;;;;;;30.83;16.20;;;33.90;15.00;;;;;;4356495;32;20524;-77
2021/08/16 09:33:15;;;;;;;31.02;16.08;;;33.60;14.50;;;;;;4340640;32;20097;-72
2021/08/16 09:35:58;;;;;;;30.12;16.55;;;34.00;13.50;;;;;;4350765;32;20478;-68
2021/08/16 09:38:39;;;;;;;30.02;16.67;;;34.20;13.30;;;;;;4340496;32;20512;-68
2021/08/16 09:41:27;;;;;;;33.70;16.55;;;34.20;14.00;;;;;;4368455;32;20069;-71
2021/08/16 09:44:05;;;;;;;30.60;16.50;;;34.40;13.10;;;;;;4371997;32;20073;-75
2021/08/16 09:46:32;;;;;;;29.58;16.10;;;33.80;13.90;;;;;;4355744;32;20228;-76
2021/08/16 09:48:59;;;;;;;28.52;16.55;;;33.30;12.60;;;;;;4324938;32;20121;-69
2021/08/16 09:51:26;;;;;;;28.48;16.12;;;33.80;13.60;;;;;;4353917;32;20082;-72
2021/08/16 09:53:52;;;;;;;32.22;18.30;;;33.80;12.50;;;;;;4353737;32;20504;-75
2021/08/16 09:56:21;;;;;;;27.92;17.08;;;33.70;13.10;;;;;;4363374;32;20094;-75
2021/08/16 09:58:48;;;;;;;30.20;16.75;;;34.40;12.30;;;;;;4340777;32;20109;-74
2021/08/16 10:01:14;;;;;;;29.25;16.48;;;34.20;11.80;;;;;;4328425;32;20063;-73
2021/08/16 10:03:41;;;;;;;29.25;16.45;;;33.90;11.20;;;;;;4350498;32;20067;-75
2021/08/16 10:06:08;;;;;;;28.48;15.15;;;34.00;12.20;;;;;;4354129;32;20094;-72
2021/08/16 10:08:50;;;;;;;29.20;16.12;;;34.30;11.60;;;;;;4322989;32;20097;-69
2021/08/16 10:11:18;;;;;;;29.60;16.98;;;34.00;11.60;;;;;;4353407;32;20113;-74
2021/08/16 10:13:52;;;;;;;27.73;15.88;;;34.00;11.80;;;;;;4361948;32;20117;-75
2021/08/16 10:16:30;;;;;;;27.45;15.82;;;33.90;12.00;;;;;;4362463;32;20561;-67
2021/08/16 10:19:08;;;;;;;29.92;15.63;;;34.30;14.00;;;;;;4340447;32;20152;-70
2021/08/16 10:21:36;;;;;;;27.92;15.35;;;34.00;12.70;;;;;;4315532;32;20184;-64
2021/08/16 10:24:03;;;;;;;28.92;15.13;;;34.10;12.50;;;;;;4330711;32;20074;-70
2021/08/16 10:26:34;;;;;;;36.50;17.17;;;34.00;12.90;;;;;;4343339;32;20595;-73
2021/08/16 10:29:05;;;;;;;28.73;15.30;;;34.00;13.70;;;;;;4328751;32;20577;-72
2021/08/16 10:31:41;;;;;;;29.90;16.10;;;33.30;13.90;;;;;;4340565;32;20519;-75
2021/08/16 10:34:07;;;;;;;30.65;15.88;;;33.60;14.20;;;;;;4353245;32;20109;-71
2021/08/16 10:36:34;;;;;;;26.65;16.33;;;33.80;13.80;;;;;;4356249;32;20074;-71
2021/08/16 10:39:02;;;;;;;30.00;15.02;;;34.20;13.60;;;;;;4320234;32;20133;-67
2021/08/16 10:41:42;;;;;;;29.45;15.30;;;33.80;14.20;;;;;;4340963;32;20109;-64
2021/08/16 10:44:18;;;;;;;29.50;15.20;;;34.10;14.60;;;;;;4339126;32;20075;-69
2021/08/16 10:47:08;;;;;;;25.83;14.38;;;34.00;14.30;;;;;;4352243;32;20121;-74
2021/08/16 10:49:40;;;;;;;30.58;15.77;;;34.40;14.20;;;;;;4344090;32;20074;-71
2021/08/16 10:52:19;;;;;;;28.38;14.45;;;34.60;13.60;;;;;;4340866;32;20094;-66
2021/08/16 10:54:46;;;;;;;32.10;13.98;;;34.40;13.90;;;;;;4346795;32;20094;-64
2021/08/16 10:57:12;;;;;;;27.85;14.27;;;34.40;14.00;;;;;;4351052;32;20090;-68
2021/08/16 10:59:38;;;;;;;26.70;13.05;;;34.00;14.30;;;;;;4333205;32;20166;-69
2021/08/16 11:02:05;;;;;;;28.58;14.35;;;34.00;14.30;;;;;;4356485;32;20187;-65
2021/08/16 11:04:36;;;;;;;25.08;14.05;;;34.20;14.10;;;;;;4358139;32;20172;-67
2021/08/16 11:07:07;;;;;;;27.60;14.13;;;34.20;14.40;;;;;;4344805;32;20093;-62
2021/08/16 11:09:36;;;;;;;25.90;14.20;;;34.20;14.70;;;;;;4320807;32;20211;-62
2021/08/16 11:12:09;;;;;;;29.98;14.85;;;34.10;15.10;;;;;;4355743;32;20062;-64
2021/08/16 11:14:40;;;;;;;27.40;15.65;;;34.40;15.20;;;;;;4325365;32;20078;-64
2021/08/16 11:17:07;;;;;;;28.87;14.25;;;34.30;15.20;;;;;;4335798;32;20086;-66
2021/08/16 11:19:47;;;;;;;27.23;15.25;;;34.30;14.60;;;;;;4333519;32;20225;-66
2021/08/16 11:22:15;;;;;;;25.98;13.80;;;34.30;15.20;;;;;;4346770;32;20076;-67
2021/08/16 11:24:46;;;;;;;25.88;14.38;;;34.50;14.90;;;;;;4350341;32;20091;-64
2021/08/16 11:27:21;;;;;;;25.65;13.85;;;33.90;14.90;;;;;;4357868;32;20071;-64
2021/08/16 11:30:02;;;;;;;26.50;14.40;;;34.30;14.70;;;;;;4341800;32;20541;-67
2021/08/16 11:32:30;;;;;;;25.52;13.85;;;34.60;14.70;;;;;;4334444;32;20098;-64
2021/08/16 11:34:57;;;;;;;25.50;13.38;;;35.10;14.50;;;;;;4335745;32;20089;-65
2021/08/16 11:37:29;;;;;;;24.23;13.65;;;34.90;14.70;;;;;;4328861;32;20181;-67
2021/08/16 11:39:56;;;;;;;28.08;14.30;;;34.50;14.50;;;;;;4351444;32;20555;-66
2021/08/16 11:42:23;;;;;;;26.95;14.32;;;34.30;14.80;;;;;;4348801;32;20102;-72
2021/08/16 11:45:01;;;;;;;28.48;14.65;;;34.60;15.30;;;;;;4350728;32;20215;-69
2021/08/16 11:47:29;;;;;;;25.73;13.10;;;34.10;14.90;;;;;;4335517;32;20113;-70
2021/08/16 11:50:05;;;;;;;26.80;14.18;;;33.90;15.00;;;;;;4347363;32;20541;-69
2021/08/16 11:52:31;;;;;;;;;;;33.90;15.00;;;;;;4324243;32;20077;-70
2021/08/16 11:55:04;;;;;;;21.37;12.98;;;33.70;14.50;;;;;;4351346;32;19975;-70
2021/08/16 11:57:31;;;;;;;26.08;13.55;;;33.70;14.90;;;;;;4334290;32;20183;-69
2021/08/16 11:59:58;;;;;;;25.37;13.57;;;34.20;14.80;;;;;;4330163;32;20613;-72
2021/08/16 12:02:30;;;;;;;26.08;13.38;;;34.40;14.40;;;;;;4333343;32;20109;-69
2021/08/16 12:04:57;;;;;;;22.73;13.55;;;34.20;14.60;;;;;;4334265;32;20085;-68
2021/08/16 12:07:26;;;;;;;26.65;13.93;;;34.00;15.40;;;;;;4333493;32;20109;-70
2021/08/16 12:09:53;;;;;;;25.37;12.27;;;34.00;14.90;;;;;;4348598;32;20102;-68
2021/08/16 12:12:21;;;;;;;23.58;13.20;;;34.30;14.90;;;;;;4358421;32;20074;-70
2021/08/16 12:14:47;;;;;;;22.92;12.85;;;34.40;14.50;;;;;;4343927;32;20155;-68
2021/08/16 12:17:23;;;;;;;24.55;12.80;;;33.70;14.80;;;;;;4335795;32;20073;-71
2021/08/16 12:20:00;;;;;;;;;;;33.80;14.90;;;;;;4366138;32;20082;-72
2021/08/16 12:22:26;;;;;;;25.73;13.05;;;34.30;14.90;;;;;;4355518;32;20036;-70
2021/08/16 12:25:03;;;;;;;22.80;12.27;;;34.30;14.80;;;;;;4341827;32;20123;-68
2021/08/16 12:27:29;;;;;;;23.98;12.43;;;33.70;15.10;;;;;;4354971;32;20074;-68
2021/08/16 12:29:55;;;;;;;26.35;13.55;;;33.60;15.10;;;;;;4370067;32;20473;-69
2021/08/16 12:32:27;;;;;;;23.55;13.40;;;33.90;15.80;;;;;;4349233;32;20086;-67
2021/08/16 12:34:53;;;;;;;24.65;12.90;;;34.30;15.20;;;;;;4331552;32;20493;-66
2021/08/16 12:37:27;;;;;;;22.17;12.55;;;34.30;14.90;;;;;;4341114;32;20078;-68
2021/08/16 12:40:24;;;;;;;27.83;13.55;;;34.20;15.20;;;;;;4356718;32;20066;-67
2021/08/16 12:42:59;;;;;;;23.92;12.50;;;34.20;14.60;;;;;;4363275;32;20059;-69
2021/08/16 12:45:25;;;;;;;23.05;12.50;;;34.40;14.40;;;;;;4336221;32;20178;-67
2021/08/16 12:48:06;;;;;;;24.17;12.07;;;34.30;14.50;;;;;;4370394;32;20105;-69
2021/08/16 12:50:34;;;;;;;23.05;12.02;;;34.20;14.20;;;;;;4331515;32;20075;-66
2021/08/16 12:53:04;;;;;;;24.55;12.30;;;33.70;14.00;;;;;;4336744;32;20062;-68
2021/08/16 12:55:31;;;;;;;23.55;13.13;;;33.50;14.30;;;;;;4334045;32;20503;-64